sensor_id;sensor_type;location;lat;lon;timestamp;temperature;humidity
69162;DHT22;56269;51.738;21.652;2024-01-15T00:01:04;0.45;99.46
69162;DHT22;56269;51.738;21.652;2024-01-15T00:03:50;0.41;99.47
69162;DHT22;56269;51.738;21.652;2024-01-15T00:06:16;0.42;99.50
69162;DHT22;56269;51.738;21.652;2024-01-15T00:08:42;0.39;99.69
69162;DHT22;56269;51.738;21.652;2024-01-15T00:11:11;0.36;99.74
69162;DHT22;56269;51.738;21.652;2024-01-15T00:13:37;0.33;99.99
69162;DHT22;56269;51.738;21.652;2024-01-15T00:16:06;0.28;99.99
69162;DHT22;56269;51.738;21.652;2024-01-15T00:18:32;0.29;99.99
69162;DHT22;56269;51.738;21.652;2024-01-15T00:20:58;0.25;99.99
69162;DHT22;56269;51.738;21.652;2024-01-15T00:23:24;0.25;99.99
69162;DHT22;56269;51.738;21.652;2024-01-15T00:25:51;0.23;99.99
69162;DHT22;56269;51.738;21.652;2024-01-15T00:28:17;0.21;99.99
69162;DHT22;56269;51.738;21.652;2024-01-15T00:30:43;0.19;99.99
69162;DHT22;56269;51.738;21.652;2024-01-15T00:33:09;0.25;99.99
69162;DHT22;56269;51.738;21.652;2024-01-15T00:35:38;0.19;99.99
69162;DHT22;56269;51.738;21.652;2024-01-15T00:38:04;0.22;99.99
69162;DHT22;56269;51.738;21.652;2024-01-15T00:40:30;0.19;99.99
69162;DHT22;56269;51.738;21.652;2024-01-15T00:42:56;0.22;99.99
69162;DHT22;56269;51.738;21.652;2024-01-15T00:45:23;0.21;99.99
69162;DHT22;56269;51.738;21.652;2024-01-15T00:47:49;0.25;99.99
69162;DHT22;56269;51.738;21.652;2024-01-15T00:50:15;0.18;99.99
69162;DHT22;56269;51.738;21.652;2024-01-15T00:52:41;0.22;99.99
69162;DHT22;56269;51.738;21.652;2024-01-15T00:55:08;0.23;99.99
69162;DHT22;56269;51.738;21.652;2024-01-15T00:57:34;0.23;99.99
69162;DHT22;56269;51.738;21.652;2024-01-15T01:00:00;0.23;99.99
69162;DHT22;56269;51.738;21.652;2024-01-15T01:02:26;0.21;99.99
69162;DHT22;56269;51.738;21.652;2024-01-15T01:04:52;0.23;99.99
69162;DHT22;56269;51.738;21.652;2024-01-15T01:07:18;0.23;99.99
69162;DHT22;56269;51.738;21.652;2024-01-15T01:09:45;0.28;99.99
69162;DHT22;56269;51.738;21.652;2024-01-15T01:12:11;0.29;99.99
69162;DHT22;56269;51.738;21.652;2024-01-15T01:14:37;0.25;99.99
69162;DHT22;56269;51.738;21.652;2024-01-15T01:17:03;0.26;99.97
69162;DHT22;56269;51.738;21.652;2024-01-15T01:19:30;0.28;99.99
69162;DHT22;56269;51.738;21.652;2024-01-15T01:21:56;0.25;99.77
69162;DHT22;56269;51.738;21.652;2024-01-15T01:24:22;0.28;99.73
69162;DHT22;56269;51.738;21.652;2024-01-15T01:26:48;0.26;99.64
69162;DHT22;56269;51.738;21.652;2024-01-15T01:29:15;0.26;99.47
69162;DHT22;56269;51.738;21.652;2024-01-15T01:31:45;0.21;99.59
69162;DHT22;56269;51.738;21.652;2024-01-15T01:34:15;0.22;99.52
69162;DHT22;56269;51.738;21.652;2024-01-15T01:36:42;0.22;99.27
69162;DHT22;56269;51.738;21.652;2024-01-15T01:39:09;0.18;99.33
69162;DHT22;56269;51.738;21.652;2024-01-15T01:41:35;0.18;99.20
69162;DHT22;56269;51.738;21.652;2024-01-15T01:44:02;0.21;99.32
69162;DHT22;56269;51.738;21.652;2024-01-15T01:46:28;0.18;99.13
69162;DHT22;56269;51.738;21.652;2024-01-15T01:48:55;0.16;98.92
69162;DHT22;56269;51.738;21.652;2024-01-15T01:51:24;0.16;98.98
69162;DHT22;56269;51.738;21.652;2024-01-15T01:53:51;0.19;98.89
69162;DHT22;56269;51.738;21.652;2024-01-15T01:56:17;0.19;98.65
69162;DHT22;56269;51.738;21.652;2024-01-15T01:58:44;0.19;98.56
69162;DHT22;56269;51.738;21.652;2024-01-15T02:01:12;0.12;98.75
69162;DHT22;56269;51.738;21.652;2024-01-15T02:03:40;0.11;98.80
69162;DHT22;56269;51.738;21.652;2024-01-15T02:06:07;0.12;98.79
69162;DHT22;56269;51.738;21.652;2024-01-15T02:08:34;0.11;98.89
69162;DHT22;56269;51.738;21.652;2024-01-15T02:11:01;0.11;98.96
69162;DHT22;56269;51.738;21.652;2024-01-15T02:13:27;0.08;99.02
69162;DHT22;56269;51.738;21.652;2024-01-15T02:15:53;0.08;99.37
69162;DHT22;56269;51.738;21.652;2024-01-15T02:18:21;0.03;99.51
69162;DHT22;56269;51.738;21.652;2024-01-15T02:20:49;0.03;99.75
69162;DHT22;56269;51.738;21.652;2024-01-15T02:23:15;0.02;99.81
69162;DHT22;56269;51.738;21.652;2024-01-15T02:25:43;-0.02;99.99
69162;DHT22;56269;51.738;21.652;2024-01-15T02:28:17;-0.03;99.99
69162;DHT22;56269;51.738;21.652;2024-01-15T02:30:44;-0.01;99.97
69162;DHT22;56269;51.738;21.652;2024-01-15T02:33:11;-0.06;99.99
69162;DHT22;56269;51.738;21.652;2024-01-15T02:35:37;-0.06;99.99
69162;DHT22;56269;51.738;21.652;2024-01-15T02:38:05;-0.02;99.99
69162;DHT22;56269;51.738;21.652;2024-01-15T02:40:31;-0.03;99.79
69162;DHT22;56269;51.738;21.652;2024-01-15T02:42:58;-0.02;99.71
69162;DHT22;56269;51.738;21.652;2024-01-15T02:45:26;-0.02;99.67
69162;DHT22;56269;51.738;21.652;2024-01-15T02:47:53;-0.02;99.66
69162;DHT22;56269;51.738;21.652;2024-01-15T02:50:19;0.03;99.23
69162;DHT22;56269;51.738;21.652;2024-01-15T02:52:45;0.02;99.21
69162;DHT22;56269;51.738;21.652;2024-01-15T02:55:13;0.06;98.90
69162;DHT22;56269;51.738;21.652;2024-01-15T02:57:39;0.06;98.99
69162;DHT22;56269;51.738;21.652;2024-01-15T03:00:06;0.08;98.77
69162;DHT22;56269;51.738;21.652;2024-01-15T03:02:36;0.09;98.90
69162;DHT22;56269;51.738;21.652;2024-01-15T03:05:06;0.05;98.92
69162;DHT22;56269;51.738;21.652;2024-01-15T03:07:33;0.08;98.83
69162;DHT22;56269;51.738;21.652;2024-01-15T03:09:59;0.06;98.90
69162;DHT22;56269;51.738;21.652;2024-01-15T03:12:26;0.11;98.58
69162;DHT22;56269;51.738;21.652;2024-01-15T03:14:51;0.09;98.43
69162;DHT22;56269;51.738;21.652;2024-01-15T03:17:20;0.12;98.47
69162;DHT22;56269;51.738;21.652;2024-01-15T03:19:46;0.09;98.43
69162;DHT22;56269;51.738;21.652;2024-01-15T03:22:12;0.12;97.99
69162;DHT22;56269;51.738;21.652;2024-01-15T03:24:38;0.13;97.91
69162;DHT22;56269;51.738;21.652;2024-01-15T03:27:04;0.12;97.86
69162;DHT22;56269;51.738;21.652;2024-01-15T03:29:30;0.13;97.87
69162;DHT22;56269;51.738;21.652;2024-01-15T03:31:57;0.15;97.68
69162;DHT22;56269;51.738;21.652;2024-01-15T03:34:23;0.22;97.64
69162;DHT22;56269;51.738;21.652;2024-01-15T03:36:49;0.15;97.92
69162;DHT22;56269;51.738;21.652;2024-01-15T03:39:15;0.15;97.76
69162;DHT22;56269;51.738;21.652;2024-01-15T03:41:41;0.12;97.88
69162;DHT22;56269;51.738;21.652;2024-01-15T03:44:07;0.12;98.17
69162;DHT22;56269;51.738;21.652;2024-01-15T03:46:34;0.03;99.29
69162;DHT22;56269;51.738;21.652;2024-01-15T03:49:00;-0.02;99.45
69162;DHT22;56269;51.738;21.652;2024-01-15T03:51:27;-0.09;99.75
69162;DHT22;56269;51.738;21.652;2024-01-15T03:53:53;-0.03;99.50
69162;DHT22;56269;51.738;21.652;2024-01-15T03:56:19;-0.08;99.33
69162;DHT22;56269;51.738;21.652;2024-01-15T03:58:45;-0.09;99.59
69162;DHT22;56269;51.738;21.652;2024-01-15T04:01:11;-0.10;99.74
69162;DHT22;56269;51.738;21.652;2024-01-15T04:03:37;-0.09;99.83
69162;DHT22;56269;51.738;21.652;2024-01-15T04:06:04;-0.15;99.92
69162;DHT22;56269;51.738;21.652;2024-01-15T04:08:30;-0.16;99.95
69162;DHT22;56269;51.738;21.652;2024-01-15T04:10:57;-0.19;99.96
69162;DHT22;56269;51.738;21.652;2024-01-15T04:13:23;-0.15;99.92
69162;DHT22;56269;51.738;21.652;2024-01-15T04:15:49;-0.16;99.70
69162;DHT22;56269;51.738;21.652;2024-01-15T04:18:18;-0.12;99.46
69162;DHT22;56269;51.738;21.652;2024-01-15T04:20:44;-0.12;99.17
69162;DHT22;56269;51.738;21.652;2024-01-15T04:23:10;-0.12;98.94
69162;DHT22;56269;51.738;21.652;2024-01-15T04:25:37;-0.09;98.82
69162;DHT22;56269;51.738;21.652;2024-01-15T04:28:03;-0.05;98.48
69162;DHT22;56269;51.738;21.652;2024-01-15T04:30:29;-0.03;98.27
69162;DHT22;56269;51.738;21.652;2024-01-15T04:32:55;0.02;97.92
69162;DHT22;56269;51.738;21.652;2024-01-15T04:35:21;0.09;97.59
69162;DHT22;56269;51.738;21.652;2024-01-15T04:37:47;0.09;97.50
69162;DHT22;56269;51.738;21.652;2024-01-15T04:40:14;0.11;97.52
69162;DHT22;56269;51.738;21.652;2024-01-15T04:42:40;0.09;97.49
69162;DHT22;56269;51.738;21.652;2024-01-15T04:45:06;0.11;97.94
69162;DHT22;56269;51.738;21.652;2024-01-15T04:47:32;0.11;97.53
69162;DHT22;56269;51.738;21.652;2024-01-15T04:49:59;0.09;97.62
69162;DHT22;56269;51.738;21.652;2024-01-15T04:52:25;0.15;97.44
69162;DHT22;56269;51.738;21.652;2024-01-15T04:54:52;0.13;97.62
69162;DHT22;56269;51.738;21.652;2024-01-15T04:57:18;0.15;97.23
69162;DHT22;56269;51.738;21.652;2024-01-15T04:59:44;0.19;97.15
69162;DHT22;56269;51.738;21.652;2024-01-15T05:02:10;0.23;97.17
69162;DHT22;56269;51.738;21.652;2024-01-15T05:04:36;0.22;97.23
69162;DHT22;56269;51.738;21.652;2024-01-15T05:07:02;0.25;97.00
69162;DHT22;56269;51.738;21.652;2024-01-15T05:09:31;0.28;96.89
69162;DHT22;56269;51.738;21.652;2024-01-15T05:11:57;0.25;97.25
69162;DHT22;56269;51.738;21.652;2024-01-15T05:14:23;0.13;97.81
69162;DHT22;56269;51.738;21.652;2024-01-15T05:16:49;-0.02;99.60
69162;DHT22;56269;51.738;21.652;2024-01-15T05:19:16;-0.13;99.99
69162;DHT22;56269;51.738;21.652;2024-01-15T05:21:42;-0.28;99.99
69162;DHT22;56269;51.738;21.652;2024-01-15T05:24:09;-0.29;99.99
69162;DHT22;56269;51.738;21.652;2024-01-15T05:26:35;-0.33;99.99
69162;DHT22;56269;51.738;21.652;2024-01-15T05:29:01;-0.34;99.99
69162;DHT22;56269;51.738;21.652;2024-01-15T05:31:27;-0.39;99.99
69162;DHT22;56269;51.738;21.652;2024-01-15T05:33:53;-0.37;99.99
69162;DHT22;56269;51.738;21.652;2024-01-15T05:36:19;-0.39;99.99
69162;DHT22;56269;51.738;21.652;2024-01-15T05:38:45;-0.36;99.99
69162;DHT22;56269;51.738;21.652;2024-01-15T05:41:12;-0.39;99.99
69162;DHT22;56269;51.738;21.652;2024-01-15T05:43:39;-0.32;99.99
69162;DHT22;56269;51.738;21.652;2024-01-15T05:46:05;-0.39;99.99
69162;DHT22;56269;51.738;21.652;2024-01-15T05:48:31;-0.39;99.99
69162;DHT22;56269;51.738;21.652;2024-01-15T05:50:57;-0.36;99.99
69162;DHT22;56269;51.738;21.652;2024-01-15T05:53:25;-0.40;99.99
69162;DHT22;56269;51.738;21.652;2024-01-15T05:55:51;-0.36;99.99
69162;DHT22;56269;51.738;21.652;2024-01-15T05:58:17;-0.30;99.99
69162;DHT22;56269;51.738;21.652;2024-01-15T06:00:43;-0.29;99.99
69162;DHT22;56269;51.738;21.652;2024-01-15T06:03:11;-0.28;99.99
69162;DHT22;56269;51.738;21.652;2024-01-15T06:05:37;-0.25;99.99
69162;DHT22;56269;51.738;21.652;2024-01-15T06:08:04;-0.30;99.99
69162;DHT22;56269;51.738;21.652;2024-01-15T06:10:30;-0.30;99.99
69162;DHT22;56269;51.738;21.652;2024-01-15T06:12:56;-0.34;99.99
69162;DHT22;56269;51.738;21.652;2024-01-15T06:15:22;-0.33;99.99
69162;DHT22;56269;51.738;21.652;2024-01-15T06:17:48;-0.34;99.99
69162;DHT22;56269;51.738;21.652;2024-01-15T06:20:14;-0.34;99.99
69162;DHT22;56269;51.738;21.652;2024-01-15T06:22:42;-0.37;99.99
69162;DHT22;56269;51.738;21.652;2024-01-15T06:25:08;-0.34;99.99
69162;DHT22;56269;51.738;21.652;2024-01-15T06:27:35;-0.34;99.99
69162;DHT22;56269;51.738;21.652;2024-01-15T06:30:01;-0.33;99.99
69162;DHT22;56269;51.738;21.652;2024-01-15T06:32:27;-0.36;99.99
69162;DHT22;56269;51.738;21.652;2024-01-15T06:34:53;-0.34;99.99
69162;DHT22;56269;51.738;21.652;2024-01-15T06:37:20;-0.34;99.99
69162;DHT22;56269;51.738;21.652;2024-01-15T06:39:46;-0.33;99.99
69162;DHT22;56269;51.738;21.652;2024-01-15T06:42:12;-0.29;99.99
69162;DHT22;56269;51.738;21.652;2024-01-15T06:44:38;-0.30;99.99
69162;DHT22;56269;51.738;21.652;2024-01-15T06:47:05;-0.29;99.99
69162;DHT22;56269;51.738;21.652;2024-01-15T06:49:31;-0.30;99.99
69162;DHT22;56269;51.738;21.652;2024-01-15T06:51:57;-0.29;99.99
69162;DHT22;56269;51.738;21.652;2024-01-15T06:54:23;-0.25;99.99
69162;DHT22;56269;51.738;21.652;2024-01-15T06:56:50;-0.22;99.99
69162;DHT22;56269;51.738;21.652;2024-01-15T06:59:16;-0.23;99.99
69162;DHT22;56269;51.738;21.652;2024-01-15T07:01:42;-0.25;99.99
69162;DHT22;56269;51.738;21.652;2024-01-15T07:04:09;-0.23;99.99
69162;DHT22;56269;51.738;21.652;2024-01-15T07:06:35;-0.23;99.99
69162;DHT22;56269;51.738;21.652;2024-01-15T07:09:01;-0.22;99.99
69162;DHT22;56269;51.738;21.652;2024-01-15T07:11:29;-0.25;99.99
69162;DHT22;56269;51.738;21.652;2024-01-15T07:13:55;-0.28;99.99
69162;DHT22;56269;51.738;21.652;2024-01-15T07:16:21;-0.28;99.99
69162;DHT22;56269;51.738;21.652;2024-01-15T07:18:47;-0.25;99.99
69162;DHT22;56269;51.738;21.652;2024-01-15T07:21:13;-0.26;99.99
69162;DHT22;56269;51.738;21.652;2024-01-15T07:23:39;-0.22;99.99
69162;DHT22;56269;51.738;21.652;2024-01-15T07:26:05;-0.23;99.99
69162;DHT22;56269;51.738;21.652;2024-01-15T07:28:31;-0.25;99.99
69162;DHT22;56269;51.738;21.652;2024-01-15T07:34:35;-0.25;99.99
69162;DHT22;56269;51.738;21.652;2024-01-15T07:37:02;-0.20;99.99
69162;DHT22;56269;51.738;21.652;2024-01-15T07:39:28;-0.19;99.99
69162;DHT22;56269;51.738;21.652;2024-01-15T07:41:56;-0.20;99.99
69162;DHT22;56269;51.738;21.652;2024-01-15T07:44:22;-0.19;99.75
69162;DHT22;56269;51.738;21.652;2024-01-15T07:46:48;-0.12;99.67
69162;DHT22;56269;51.738;21.652;2024-01-15T07:49:14;-0.08;99.35
69162;DHT22;56269;51.738;21.652;2024-01-15T07:51:40;-0.09;99.52
69162;DHT22;56269;51.738;21.652;2024-01-15T07:54:09;-0.02;99.33
69162;DHT22;56269;51.738;21.652;2024-01-15T07:56:54;0.01;98.96
69162;DHT22;56269;51.738;21.652;2024-01-15T07:59:21;0.02;98.92
69162;DHT22;56269;51.738;21.652;2024-01-15T08:01:47;0.01;99.11
69162;DHT22;56269;51.738;21.652;2024-01-15T08:04:13;-0.03;99.10
69162;DHT22;56269;51.738;21.652;2024-01-15T08:06:40;-0.02;99.32
69162;DHT22;56269;51.738;21.652;2024-01-15T08:09:07;-0.05;99.03
69162;DHT22;56269;51.738;21.652;2024-01-15T08:11:34;-0.03;99.42
69162;DHT22;56269;51.738;21.652;2024-01-15T08:14:01;-0.01;99.39
69162;DHT22;56269;51.738;21.652;2024-01-15T08:16:27;0.11;99.07
69162;DHT22;56269;51.738;21.652;2024-01-15T08:18:54;0.16;98.88
69162;DHT22;56269;51.738;21.652;2024-01-15T08:21:20;0.11;98.89
69162;DHT22;56269;51.738;21.652;2024-01-15T08:23:46;0.12;99.31
69162;DHT22;56269;51.738;21.652;2024-01-15T08:26:12;0.15;99.09
69162;DHT22;56269;51.738;21.652;2024-01-15T08:28:39;0.25;98.94
69162;DHT22;56269;51.738;21.652;2024-01-15T08:31:05;0.23;98.84
69162;DHT22;56269;51.738;21.652;2024-01-15T08:33:31;0.35;98.54
69162;DHT22;56269;51.738;21.652;2024-01-15T08:35:57;0.29;98.63
69162;DHT22;56269;51.738;21.652;2024-01-15T08:38:23;0.19;98.88
69162;DHT22;56269;51.738;21.652;2024-01-15T08:40:51;0.26;98.53
69162;DHT22;56269;51.738;21.652;2024-01-15T08:43:19;0.32;98.49
69162;DHT22;56269;51.738;21.652;2024-01-15T08:45:45;0.38;98.34
69162;DHT22;56269;51.738;21.652;2024-01-15T08:48:13;0.38;98.34
69162;DHT22;56269;51.738;21.652;2024-01-15T08:50:39;0.33;98.35
69162;DHT22;56269;51.738;21.652;2024-01-15T08:53:06;0.35;98.59
69162;DHT22;56269;51.738;21.652;2024-01-15T08:55:31;0.29;98.88
69162;DHT22;56269;51.738;21.652;2024-01-15T08:57:59;0.26;99.11
69162;DHT22;56269;51.738;21.652;2024-01-15T09:00:25;0.13;99.91
69162;DHT22;56269;51.738;21.652;2024-01-15T09:02:51;0.16;99.92
69162;DHT22;56269;51.738;21.652;2024-01-15T09:05:18;0.19;99.67
69162;DHT22;56269;51.738;21.652;2024-01-15T09:07:44;0.22;99.84
69162;DHT22;56269;51.738;21.652;2024-01-15T09:10:11;0.21;99.49
69162;DHT22;56269;51.738;21.652;2024-01-15T09:12:38;0.26;99.54
69162;DHT22;56269;51.738;21.652;2024-01-15T09:15:05;0.35;99.43
69162;DHT22;56269;51.738;21.652;2024-01-15T09:17:32;0.22;99.84
69162;DHT22;56269;51.738;21.652;2024-01-15T09:19:58;0.09;99.99
69162;DHT22;56269;51.738;21.652;2024-01-15T09:22:24;0.06;99.99
69162;DHT22;56269;51.738;21.652;2024-01-15T09:24:50;0.06;99.99
69162;DHT22;56269;51.738;21.652;2024-01-15T09:27:16;0.08;99.51
69162;DHT22;56269;51.738;21.652;2024-01-15T09:29:43;0.19;99.04
69162;DHT22;56269;51.738;21.652;2024-01-15T09:32:12;0.21;99.03
69162;DHT22;56269;51.738;21.652;2024-01-15T09:34:38;0.26;99.09
69162;DHT22;56269;51.738;21.652;2024-01-15T09:37:05;0.30;99.03
69162;DHT22;56269;51.738;21.652;2024-01-15T09:39:31;0.64;97.50
69162;DHT22;56269;51.738;21.652;2024-01-15T09:41:58;0.59;97.46
69162;DHT22;56269;51.738;21.652;2024-01-15T09:44:24;0.42;97.94
69162;DHT22;56269;51.738;21.652;2024-01-15T09:46:51;0.50;97.90
69162;DHT22;56269;51.738;21.652;2024-01-15T09:49:18;0.60;97.43
69162;DHT22;56269;51.738;21.652;2024-01-15T09:51:45;1.09;96.50
69162;DHT22;56269;51.738;21.652;2024-01-15T09:54:11;2.00;93.92
69162;DHT22;56269;51.738;21.652;2024-01-15T09:56:39;3.05;91.41
69162;DHT22;56269;51.738;21.652;2024-01-15T09:59:05;2.09;91.94
69162;DHT22;56269;51.738;21.652;2024-01-15T10:01:32;1.63;92.82
69162;DHT22;56269;51.738;21.652;2024-01-15T10:03:59;1.66;93.27
69162;DHT22;56269;51.738;21.652;2024-01-15T10:06:27;1.45;93.43
69162;DHT22;56269;51.738;21.652;2024-01-15T10:08:56;1.20;93.66
69162;DHT22;56269;51.738;21.652;2024-01-15T10:11:24;1.09;94.01
69162;DHT22;56269;51.738;21.652;2024-01-15T10:13:51;1.17;93.57
69162;DHT22;56269;51.738;21.652;2024-01-15T10:16:19;1.21;93.10
69162;DHT22;56269;51.738;21.652;2024-01-15T10:18:46;1.20;93.10
69162;DHT22;56269;51.738;21.652;2024-01-15T10:21:13;1.27;93.10
69162;DHT22;56269;51.738;21.652;2024-01-15T10:23:40;1.28;92.76
69162;DHT22;56269;51.738;21.652;2024-01-15T10:26:06;1.27;93.03
69162;DHT22;56269;51.738;21.652;2024-01-15T10:28:32;1.18;93.25
69162;DHT22;56269;51.738;21.652;2024-01-15T10:30:59;1.34;93.09
69162;DHT22;56269;51.738;21.652;2024-01-15T10:33:26;1.44;92.83
69162;DHT22;56269;51.738;21.652;2024-01-15T10:35:54;1.58;91.87
69162;DHT22;56269;51.738;21.652;2024-01-15T10:38:21;1.52;92.11
69162;DHT22;56269;51.738;21.652;2024-01-15T10:40:51;1.83;91.13
69162;DHT22;56269;51.738;21.652;2024-01-15T10:43:17;2.05;91.18
69162;DHT22;56269;51.738;21.652;2024-01-15T10:45:45;2.13;90.55
69162;DHT22;56269;51.738;21.652;2024-01-15T10:48:12;2.33;90.25
69162;DHT22;56269;51.738;21.652;2024-01-15T10:50:38;2.02;90.52
69162;DHT22;56269;51.738;21.652;2024-01-15T10:53:05;1.83;91.13
69162;DHT22;56269;51.738;21.652;2024-01-15T10:55:35;2.03;91.10
69162;DHT22;56269;51.738;21.652;2024-01-15T10:58:03;1.90;90.95
69162;DHT22;56269;51.738;21.652;2024-01-15T11:00:30;1.80;91.01
69162;DHT22;56269;51.738;21.652;2024-01-15T11:02:56;1.76;91.65
69162;DHT22;56269;51.738;21.652;2024-01-15T11:05:23;1.76;90.73
69162;DHT22;56269;51.738;21.652;2024-01-15T11:07:55;1.92;90.46
69162;DHT22;56269;51.738;21.652;2024-01-15T11:10:44;1.70;90.63
69162;DHT22;56269;51.738;21.652;2024-01-15T11:16:00;1.69;90.79
69162;DHT22;56269;51.738;21.652;2024-01-15T11:18:31;1.70;90.34
69162;DHT22;56269;51.738;21.652;2024-01-15T11:21:20;1.67;89.69
69162;DHT22;56269;51.738;21.652;2024-01-15T11:23:58;1.92;89.79
69162;DHT22;56269;51.738;21.652;2024-01-15T11:28:55;1.90;89.78
69162;DHT22;56269;51.738;21.652;2024-01-15T11:34:14;1.72;89.24
69162;DHT22;56269;51.738;21.652;2024-01-15T11:41:59;1.63;89.66
69162;DHT22;56269;51.738;21.652;2024-01-15T11:44:26;1.85;89.06
69162;DHT22;56269;51.738;21.652;2024-01-15T11:49:59;3.09;83.38
69162;DHT22;56269;51.738;21.652;2024-01-15T11:52:35;2.89;85.13
69162;DHT22;56269;51.738;21.652;2024-01-15T11:57:52;2.85;84.23
69162;DHT22;56269;51.738;21.652;2024-01-15T12:00:21;2.49;85.48
69162;DHT22;56269;51.738;21.652;2024-01-15T12:02:49;2.62;85.35
69162;DHT22;56269;51.738;21.652;2024-01-15T12:05:18;2.64;84.30
69162;DHT22;56269;51.738;21.652;2024-01-15T12:07:49;2.20;86.29
69162;DHT22;56269;51.738;21.652;2024-01-15T12:10:17;2.17;87.11
69162;DHT22;56269;51.738;21.652;2024-01-15T12:13:02;1.97;86.86
69162;DHT22;56269;51.738;21.652;2024-01-15T12:15:31;2.09;87.11
69162;DHT22;56269;51.738;21.652;2024-01-15T12:18:00;1.85;87.11
69162;DHT22;56269;51.738;21.652;2024-01-15T12:20:29;1.58;87.75
69162;DHT22;56269;51.738;21.652;2024-01-15T12:22:55;1.60;88.12
69162;DHT22;56269;51.738;21.652;2024-01-15T12:25:22;1.52;88.80
69162;DHT22;56269;51.738;21.652;2024-01-15T12:27:49;1.41;89.23
69162;DHT22;56269;51.738;21.652;2024-01-15T12:30:16;1.28;90.00
69162;DHT22;56269;51.738;21.652;2024-01-15T12:32:43;1.28;89.64
69162;DHT22;56269;51.738;21.652;2024-01-15T12:35:10;1.24;90.02
69162;DHT22;56269;51.738;21.652;2024-01-15T12:37:39;1.23;89.69
69162;DHT22;56269;51.738;21.652;2024-01-15T12:40:06;1.14;90.16
69162;DHT22;56269;51.738;21.652;2024-01-15T12:42:34;1.14;90.97
69162;DHT22;56269;51.738;21.652;2024-01-15T12:45:00;1.07;90.64
69162;DHT22;56269;51.738;21.652;2024-01-15T12:47:27;0.98;90.89
69162;DHT22;56269;51.738;21.652;2024-01-15T12:49:53;1.00;90.92
69162;DHT22;56269;51.738;21.652;2024-01-15T12:52:20;0.91;91.93
69162;DHT22;56269;51.738;21.652;2024-01-15T12:54:50;0.87;92.20
69162;DHT22;56269;51.738;21.652;2024-01-15T12:57:16;0.83;92.64
69162;DHT22;56269;51.738;21.652;2024-01-15T12:59:44;0.93;92.46
69162;DHT22;56269;51.738;21.652;2024-01-15T13:02:14;0.90;92.20
69162;DHT22;56269;51.738;21.652;2024-01-15T13:04:40;0.93;92.16
69162;DHT22;56269;51.738;21.652;2024-01-15T13:07:07;0.98;91.78
69162;DHT22;56269;51.738;21.652;2024-01-15T13:09:34;1.07;91.35
69162;DHT22;56269;51.738;21.652;2024-01-15T13:12:03;1.13;91.21
69162;DHT22;56269;51.738;21.652;2024-01-15T13:14:29;1.03;91.60
69162;DHT22;56269;51.738;21.652;2024-01-15T13:16:55;1.00;92.48
69162;DHT22;56269;51.738;21.652;2024-01-15T13:19:22;1.03;92.40
69162;DHT22;56269;51.738;21.652;2024-01-15T13:21:48;1.04;92.15
69162;DHT22;56269;51.738;21.652;2024-01-15T13:24:16;1.01;91.93
69162;DHT22;56269;51.738;21.652;2024-01-15T13:26:42;0.94;92.29
69162;DHT22;56269;51.738;21.652;2024-01-15T13:29:13;0.94;92.15
69162;DHT22;56269;51.738;21.652;2024-01-15T13:31:40;0.87;92.20
69162;DHT22;56269;51.738;21.652;2024-01-15T13:34:06;0.84;92.05
69162;DHT22;56269;51.738;21.652;2024-01-15T13:36:33;0.83;92.72
69162;DHT22;56269;51.738;21.652;2024-01-15T13:38:59;0.76;93.59
69162;DHT22;56269;51.738;21.652;2024-01-15T13:41:25;0.66;93.94
69162;DHT22;56269;51.738;21.652;2024-01-15T13:43:54;0.54;94.39
69162;DHT22;56269;51.738;21.652;2024-01-15T13:46:23;0.64;93.68
69162;DHT22;56269;51.738;21.652;2024-01-15T13:48:50;0.67;93.47
69162;DHT22;56269;51.738;21.652;2024-01-15T13:51:16;0.73;92.60
69162;DHT22;56269;51.738;21.652;2024-01-15T13:53:43;0.73;92.55
69162;DHT22;56269;51.738;21.652;2024-01-15T13:56:09;0.69;92.53
69162;DHT22;56269;51.738;21.652;2024-01-15T13:58:36;0.69;92.13
69162;DHT22;56269;51.738;21.652;2024-01-15T14:01:04;0.72;92.11
69162;DHT22;56269;51.738;21.652;2024-01-15T14:03:32;0.77;92.27
69162;DHT22;56269;51.738;21.652;2024-01-15T14:05:58;0.77;91.98
69162;DHT22;56269;51.738;21.652;2024-01-15T14:08:24;0.80;92.25
69162;DHT22;56269;51.738;21.652;2024-01-15T14:10:51;0.74;92.38
69162;DHT22;56269;51.738;21.652;2024-01-15T14:13:17;0.74;92.35
69162;DHT22;56269;51.738;21.652;2024-01-15T14:15:44;0.76;92.49
69162;DHT22;56269;51.738;21.652;2024-01-15T14:18:11;0.69;92.26
69162;DHT22;56269;51.738;21.652;2024-01-15T14:20:38;0.64;92.37
69162;DHT22;56269;51.738;21.652;2024-01-15T14:23:04;0.66;91.64
69162;DHT22;56269;51.738;21.652;2024-01-15T14:25:30;0.62;91.90
69162;DHT22;56269;51.738;21.652;2024-01-15T14:27:56;0.72;91.64
69162;DHT22;56269;51.738;21.652;2024-01-15T14:30:23;0.64;91.74
69162;DHT22;56269;51.738;21.652;2024-01-15T14:32:49;0.60;92.21
69162;DHT22;56269;51.738;21.652;2024-01-15T14:35:15;0.50;92.50
69162;DHT22;56269;51.738;21.652;2024-01-15T14:37:41;0.48;92.37
69162;DHT22;56269;51.738;21.652;2024-01-15T14:40:08;0.43;92.49
69162;DHT22;56269;51.738;21.652;2024-01-15T14:42:34;0.43;92.10
69162;DHT22;56269;51.738;21.652;2024-01-15T14:45:01;0.42;92.28
69162;DHT22;56269;51.738;21.652;2024-01-15T14:47:31;0.42;92.26
69162;DHT22;56269;51.738;21.652;2024-01-15T14:49:57;0.45;91.95
69162;DHT22;56269;51.738;21.652;2024-01-15T14:52:23;0.45;91.61
69162;DHT22;56269;51.738;21.652;2024-01-15T14:54:50;0.39;91.90
69162;DHT22;56269;51.738;21.652;2024-01-15T14:57:16;0.42;91.77
69162;DHT22;56269;51.738;21.652;2024-01-15T14:59:42;0.36;92.30
69162;DHT22;56269;51.738;21.652;2024-01-15T15:02:08;0.23;92.82
69162;DHT22;56269;51.738;21.652;2024-01-15T15:04:34;0.21;92.96
69162;DHT22;56269;51.738;21.652;2024-01-15T15:07:00;0.21;92.58
69162;DHT22;56269;51.738;21.652;2024-01-15T15:09:27;0.22;92.32
69162;DHT22;56269;51.738;21.652;2024-01-15T15:11:53;0.21;92.66
69162;DHT22;56269;51.738;21.652;2024-01-15T15:14:19;0.23;92.17
69162;DHT22;56269;51.738;21.652;2024-01-15T15:16:45;0.21;92.24
69162;DHT22;56269;51.738;21.652;2024-01-15T15:19:15;0.16;92.62
69162;DHT22;56269;51.738;21.652;2024-01-15T15:21:41;0.16;92.39
69162;DHT22;56269;51.738;21.652;2024-01-15T15:24:07;0.15;92.47
69162;DHT22;56269;51.738;21.652;2024-01-15T15:26:33;0.09;92.55
69162;DHT22;56269;51.738;21.652;2024-01-15T15:28:59;0.16;92.24
69162;DHT22;56269;51.738;21.652;2024-01-15T15:31:26;0.16;92.16
69162;DHT22;56269;51.738;21.652;2024-01-15T15:33:54;0.16;92.16
69162;DHT22;56269;51.738;21.652;2024-01-15T15:36:20;0.25;91.33
69162;DHT22;56269;51.738;21.652;2024-01-15T15:38:46;0.22;91.88
69162;DHT22;56269;51.738;21.652;2024-01-15T15:41:12;0.15;91.91
69162;DHT22;56269;51.738;21.652;2024-01-15T15:43:39;0.19;91.61
69162;DHT22;56269;51.738;21.652;2024-01-15T15:46:05;0.19;91.56
69162;DHT22;56269;51.738;21.652;2024-01-15T15:48:31;0.29;90.86